sensor_id;sensor_type;location;lat;lon;timestamp;P1;durP1;ratioP1;P2;durP2;ratioP2
22579;SDS011;11456;47.030;15.396;2022-07-23T00:00:14;10.52;;;6.00;;
22579;SDS011;11456;47.030;15.396;2022-07-23T00:02:41;14.02;;;6.70;;
22579;SDS011;11456;47.030;15.396;2022-07-23T00:05:08;10.68;;;5.90;;
22579;SDS011;11456;47.030;15.396;2022-07-23T00:07:36;11.55;;;6.18;;
22579;SDS011;11456;47.030;15.396;2022-07-23T00:10:03;11.90;;;7.03;;
22579;SDS011;11456;47.030;15.396;2022-07-23T00:12:31;9.23;;;6.65;;
22579;SDS011;11456;47.030;15.396;2022-07-23T00:14:58;8.93;;;6.90;;
22579;SDS011;11456;47.030;15.396;2022-07-23T00:17:24;11.82;;;6.10;;
22579;SDS011;11456;47.030;15.396;2022-07-23T00:19:51;10.63;;;5.78;;
22579;SDS011;11456;47.030;15.396;2022-07-23T00:22:20;8.77;;;6.28;;
22579;SDS011;11456;47.030;15.396;2022-07-23T00:24:46;9.38;;;5.95;;
22579;SDS011;11456;47.030;15.396;2022-07-23T00:27:33;9.10;;;5.85;;
22579;SDS011;11456;47.030;15.396;2022-07-23T00:30:00;8.35;;;6.22;;
22579;SDS011;11456;47.030;15.396;2022-07-23T00:32:27;7.20;;;6.22;;
22579;SDS011;11456;47.030;15.396;2022-07-23T00:35:14;10.45;;;6.45;;
22579;SDS011;11456;47.030;15.396;2022-07-23T00:37:41;9.00;;;6.60;;
22579;SDS011;11456;47.030;15.396;2022-07-23T00:40:08;9.60;;;6.53;;
22579;SDS011;11456;47.030;15.396;2022-07-23T00:42:35;7.93;;;6.22;;
22579;SDS011;11456;47.030;15.396;2022-07-23T00:45:02;12.93;;;7.40;;
22579;SDS011;11456;47.030;15.396;2022-07-23T00:47:30;8.88;;;6.75;;
22579;SDS011;11456;47.030;15.396;2022-07-23T00:49:56;12.05;;;6.60;;
22579;SDS011;11456;47.030;15.396;2022-07-23T00:52:23;8.30;;;6.88;;
22579;SDS011;11456;47.030;15.396;2022-07-23T00:54:51;9.68;;;6.47;;
22579;SDS011;11456;47.030;15.396;2022-07-23T00:57:17;9.20;;;6.72;;
22579;SDS011;11456;47.030;15.396;2022-07-23T00:59:44;12.77;;;6.95;;
22579;SDS011;11456;47.030;15.396;2022-07-23T01:02:11;10.95;;;6.80;;
22579;SDS011;11456;47.030;15.396;2022-07-23T01:04:38;7.95;;;6.80;;
22579;SDS011;11456;47.030;15.396;2022-07-23T01:07:04;9.88;;;6.95;;
22579;SDS011;11456;47.030;15.396;2022-07-23T01:09:31;10.23;;;6.68;;
22579;SDS011;11456;47.030;15.396;2022-07-23T01:11:58;14.18;;;6.82;;
22579;SDS011;11456;47.030;15.396;2022-07-23T01:14:26;12.65;;;6.57;;
22579;SDS011;11456;47.030;15.396;2022-07-23T01:16:53;11.43;;;6.80;;
22579;SDS011;11456;47.030;15.396;2022-07-23T01:19:19;13.40;;;6.82;;
22579;SDS011;11456;47.030;15.396;2022-07-23T01:21:48;11.00;;;6.65;;
22579;SDS011;11456;47.030;15.396;2022-07-23T01:24:16;8.27;;;6.25;;
22579;SDS011;11456;47.030;15.396;2022-07-23T01:26:54;10.02;;;7.32;;
22579;SDS011;11456;47.030;15.396;2022-07-23T01:29:21;9.82;;;6.82;;
22579;SDS011;11456;47.030;15.396;2022-07-23T01:31:49;7.35;;;6.63;;
22579;SDS011;11456;47.030;15.396;2022-07-23T01:34:16;10.50;;;6.45;;
22579;SDS011;11456;47.030;15.396;2022-07-23T01:36:43;8.73;;;6.35;;
22579;SDS011;11456;47.030;15.396;2022-07-23T01:39:10;7.72;;;6.47;;
22579;SDS011;11456;47.030;15.396;2022-07-23T01:41:37;8.80;;;6.95;;
22579;SDS011;11456;47.030;15.396;2022-07-23T01:44:05;7.70;;;6.90;;
22579;SDS011;11456;47.030;15.396;2022-07-23T01:46:32;11.38;;;6.78;;
22579;SDS011;11456;47.030;15.396;2022-07-23T01:48:59;9.85;;;7.18;;
22579;SDS011;11456;47.030;15.396;2022-07-23T01:51:59;9.52;;;7.30;;
22579;SDS011;11456;47.030;15.396;2022-07-23T01:54:46;10.13;;;7.30;;
22579;SDS011;11456;47.030;15.396;2022-07-23T01:57:13;14.07;;;7.13;;
22579;SDS011;11456;47.030;15.396;2022-07-23T01:59:39;10.23;;;6.85;;
22579;SDS011;11456;47.030;15.396;2022-07-23T02:02:08;13.05;;;7.28;;
22579;SDS011;11456;47.030;15.396;2022-07-23T02:04:36;7.72;;;6.57;;
22579;SDS011;11456;47.030;15.396;2022-07-23T02:07:03;9.10;;;7.60;;
22579;SDS011;11456;47.030;15.396;2022-07-23T02:09:31;9.73;;;6.93;;
22579;SDS011;11456;47.030;15.396;2022-07-23T02:11:58;11.73;;;7.35;;
22579;SDS011;11456;47.030;15.396;2022-07-23T02:14:25;14.38;;;7.25;;
22579;SDS011;11456;47.030;15.396;2022-07-23T02:16:52;8.35;;;6.95;;
22579;SDS011;11456;47.030;15.396;2022-07-23T02:19:19;12.13;;;7.57;;
22579;SDS011;11456;47.030;15.396;2022-07-23T02:21:46;9.05;;;7.20;;
22579;SDS011;11456;47.030;15.396;2022-07-23T02:24:13;13.23;;;7.28;;
22579;SDS011;11456;47.030;15.396;2022-07-23T02:26:41;9.68;;;7.82;;
22579;SDS011;11456;47.030;15.396;2022-07-23T02:29:08;10.68;;;7.15;;
22579;SDS011;11456;47.030;15.396;2022-07-23T02:31:35;12.18;;;7.30;;
22579;SDS011;11456;47.030;15.396;2022-07-23T02:34:02;10.18;;;7.50;;
22579;SDS011;11456;47.030;15.396;2022-07-23T02:36:29;10.77;;;8.05;;
22579;SDS011;11456;47.030;15.396;2022-07-23T02:38:57;9.75;;;7.55;;
22579;SDS011;11456;47.030;15.396;2022-07-23T02:41:26;9.50;;;7.10;;
22579;SDS011;11456;47.030;15.396;2022-07-23T02:43:53;10.25;;;7.45;;
22579;SDS011;11456;47.030;15.396;2022-07-23T02:46:21;14.57;;;7.93;;
22579;SDS011;11456;47.030;15.396;2022-07-23T02:48:48;11.50;;;8.45;;
22579;SDS011;11456;47.030;15.396;2022-07-23T02:51:15;12.75;;;8.77;;
22579;SDS011;11456;47.030;15.396;2022-07-23T02:53:49;13.70;;;8.57;;
22579;SDS011;11456;47.030;15.396;2022-07-23T02:56:16;11.80;;;8.20;;
22579;SDS011;11456;47.030;15.396;2022-07-23T02:58:43;10.48;;;8.43;;
22579;SDS011;11456;47.030;15.396;2022-07-23T03:01:09;11.68;;;8.52;;
22579;SDS011;11456;47.030;15.396;2022-07-23T03:03:36;10.20;;;8.45;;
22579;SDS011;11456;47.030;15.396;2022-07-23T03:06:03;15.68;;;8.50;;
22579;SDS011;11456;47.030;15.396;2022-07-23T03:08:30;12.85;;;8.27;;
22579;SDS011;11456;47.030;15.396;2022-07-23T03:10:57;12.02;;;8.70;;
22579;SDS011;11456;47.030;15.396;2022-07-23T03:13:24;10.32;;;7.95;;
22579;SDS011;11456;47.030;15.396;2022-07-23T03:15:52;11.23;;;8.55;;
22579;SDS011;11456;47.030;15.396;2022-07-23T03:18:19;12.57;;;8.50;;
22579;SDS011;11456;47.030;15.396;2022-07-23T03:20:45;13.98;;;8.40;;
22579;SDS011;11456;47.030;15.396;2022-07-23T03:23:12;14.00;;;8.57;;
22579;SDS011;11456;47.030;15.396;2022-07-23T03:25:39;10.73;;;8.40;;
22579;SDS011;11456;47.030;15.396;2022-07-23T03:28:06;9.52;;;8.43;;
22579;SDS011;11456;47.030;15.396;2022-07-23T03:30:33;12.60;;;8.55;;
22579;SDS011;11456;47.030;15.396;2022-07-23T03:33:00;9.68;;;8.05;;
22579;SDS011;11456;47.030;15.396;2022-07-23T03:35:26;10.45;;;7.70;;
22579;SDS011;11456;47.030;15.396;2022-07-23T03:38:15;10.57;;;8.10;;
22579;SDS011;11456;47.030;15.396;2022-07-23T03:40:42;18.60;;;8.43;;
22579;SDS011;11456;47.030;15.396;2022-07-23T03:43:08;10.57;;;8.13;;
22579;SDS011;11456;47.030;15.396;2022-07-23T03:45:35;10.68;;;8.50;;
22579;SDS011;11456;47.030;15.396;2022-07-23T03:48:03;11.30;;;8.07;;
22579;SDS011;11456;47.030;15.396;2022-07-23T03:50:29;11.98;;;8.52;;
22579;SDS011;11456;47.030;15.396;2022-07-23T03:52:56;11.80;;;8.30;;
22579;SDS011;11456;47.030;15.396;2022-07-23T03:55:23;11.25;;;9.02;;
22579;SDS011;11456;47.030;15.396;2022-07-23T03:57:50;12.88;;;8.43;;
22579;SDS011;11456;47.030;15.396;2022-07-23T04:00:16;14.65;;;8.40;;
22579;SDS011;11456;47.030;15.396;2022-07-23T04:02:48;14.55;;;9.07;;
22579;SDS011;11456;47.030;15.396;2022-07-23T04:05:16;10.65;;;8.52;;
22579;SDS011;11456;47.030;15.396;2022-07-23T04:07:45;9.38;;;8.38;;
22579;SDS011;11456;47.030;15.396;2022-07-23T04:10:12;13.60;;;8.65;;
22579;SDS011;11456;47.030;15.396;2022-07-23T04:12:39;11.45;;;9.60;;
22579;SDS011;11456;47.030;15.396;2022-07-23T04:15:06;13.95;;;9.32;;
22579;SDS011;11456;47.030;15.396;2022-07-23T04:17:35;10.90;;;9.73;;
22579;SDS011;11456;47.030;15.396;2022-07-23T04:20:01;12.07;;;9.57;;
22579;SDS011;11456;47.030;15.396;2022-07-23T04:22:34;17.02;;;10.48;;
22579;SDS011;11456;47.030;15.396;2022-07-23T04:25:01;15.18;;;10.80;;
22579;SDS011;11456;47.030;15.396;2022-07-23T04:27:28;20.67;;;10.52;;
22579;SDS011;11456;47.030;15.396;2022-07-23T04:29:54;18.90;;;11.43;;
22579;SDS011;11456;47.030;15.396;2022-07-23T04:32:22;19.60;;;10.90;;
22579;SDS011;11456;47.030;15.396;2022-07-23T04:34:48;15.82;;;10.52;;
22579;SDS011;11456;47.030;15.396;2022-07-23T04:37:15;18.05;;;10.63;;
22579;SDS011;11456;47.030;15.396;2022-07-23T04:39:42;13.45;;;10.98;;
22579;SDS011;11456;47.030;15.396;2022-07-23T04:42:08;18.88;;;10.80;;
22579;SDS011;11456;47.030;15.396;2022-07-23T04:44:35;22.23;;;10.30;;
22579;SDS011;11456;47.030;15.396;2022-07-23T04:47:03;17.52;;;10.10;;
22579;SDS011;11456;47.030;15.396;2022-07-23T04:49:31;16.50;;;10.95;;
22579;SDS011;11456;47.030;15.396;2022-07-23T04:51:57;15.20;;;10.32;;
22579;SDS011;11456;47.030;15.396;2022-07-23T04:54:24;15.15;;;10.05;;
22579;SDS011;11456;47.030;15.396;2022-07-23T04:56:51;19.98;;;10.55;;
22579;SDS011;11456;47.030;15.396;2022-07-23T04:59:17;18.08;;;10.38;;
22579;SDS011;11456;47.030;15.396;2022-07-23T05:01:47;29.08;;;11.27;;
22579;SDS011;11456;47.030;15.396;2022-07-23T05:04:14;18.48;;;10.20;;
22579;SDS011;11456;47.030;15.396;2022-07-23T05:06:41;15.07;;;10.15;;
22579;SDS011;11456;47.030;15.396;2022-07-23T05:09:08;14.48;;;10.35;;
22579;SDS011;11456;47.030;15.396;2022-07-23T05:11:35;16.65;;;10.75;;
22579;SDS011;11456;47.030;15.396;2022-07-23T05:14:01;19.48;;;10.85;;
22579;SDS011;11456;47.030;15.396;2022-07-23T05:16:28;17.90;;;11.00;;
22579;SDS011;11456;47.030;15.396;2022-07-23T05:21:27;19.05;;;11.20;;
22579;SDS011;11456;47.030;15.396;2022-07-23T05:23:54;35.33;;;11.63;;
22579;SDS011;11456;47.030;15.396;2022-07-23T05:26:21;13.07;;;11.27;;
22579;SDS011;11456;47.030;15.396;2022-07-23T05:28:48;15.45;;;11.10;;
22579;SDS011;11456;47.030;15.396;2022-07-23T05:31:17;12.65;;;10.75;;
22579;SDS011;11456;47.030;15.396;2022-07-23T05:33:45;16.08;;;11.00;;
22579;SDS011;11456;47.030;15.396;2022-07-23T05:36:13;15.90;;;10.50;;
22579;SDS011;11456;47.030;15.396;2022-07-23T05:38:48;14.48;;;10.80;;
22579;SDS011;11456;47.030;15.396;2022-07-23T05:41:15;13.73;;;10.77;;
22579;SDS011;11456;47.030;15.396;2022-07-23T05:43:42;17.80;;;11.32;;
22579;SDS011;11456;47.030;15.396;2022-07-23T05:46:10;15.38;;;10.98;;
22579;SDS011;11456;47.030;15.396;2022-07-23T05:48:40;20.30;;;10.63;;
22579;SDS011;11456;47.030;15.396;2022-07-23T05:51:22;14.65;;;10.77;;
22579;SDS011;11456;47.030;15.396;2022-07-23T05:53:50;13.07;;;9.48;;
22579;SDS011;11456;47.030;15.396;2022-07-23T05:56:20;13.52;;;10.05;;
22579;SDS011;11456;47.030;15.396;2022-07-23T05:58:47;15.25;;;10.10;;
22579;SDS011;11456;47.030;15.396;2022-07-23T06:01:16;23.77;;;10.30;;
22579;SDS011;11456;47.030;15.396;2022-07-23T06:03:50;16.45;;;9.88;;
22579;SDS011;11456;47.030;15.396;2022-07-23T06:06:17;13.13;;;9.65;;
22579;SDS011;11456;47.030;15.396;2022-07-23T06:08:44;14.93;;;9.82;;
22579;SDS011;11456;47.030;15.396;2022-07-23T06:11:11;13.52;;;9.02;;
22579;SDS011;11456;47.030;15.396;2022-07-23T06:13:38;12.10;;;9.52;;
22579;SDS011;11456;47.030;15.396;2022-07-23T06:16:05;12.02;;;9.45;;
22579;SDS011;11456;47.030;15.396;2022-07-23T06:18:32;12.10;;;9.40;;
22579;SDS011;11456;47.030;15.396;2022-07-23T06:20:59;17.13;;;9.52;;
22579;SDS011;11456;47.030;15.396;2022-07-23T06:23:26;13.60;;;9.13;;
22579;SDS011;11456;47.030;15.396;2022-07-23T06:25:53;11.10;;;8.68;;
22579;SDS011;11456;47.030;15.396;2022-07-23T06:28:20;15.50;;;9.60;;
22579;SDS011;11456;47.030;15.396;2022-07-23T06:30:46;16.17;;;9.13;;
22579;SDS011;11456;47.030;15.396;2022-07-23T06:33:13;12.77;;;9.35;;
22579;SDS011;11456;47.030;15.396;2022-07-23T06:35:40;18.00;;;8.95;;
22579;SDS011;11456;47.030;15.396;2022-07-23T06:38:07;17.85;;;8.80;;
22579;SDS011;11456;47.030;15.396;2022-07-23T06:40:34;14.23;;;8.77;;
22579;SDS011;11456;47.030;15.396;2022-07-23T06:43:01;19.95;;;9.40;;
22579;SDS011;11456;47.030;15.396;2022-07-23T06:45:29;11.35;;;8.65;;
22579;SDS011;11456;47.030;15.396;2022-07-23T06:47:56;14.93;;;9.25;;
22579;SDS011;11456;47.030;15.396;2022-07-23T06:50:22;16.63;;;9.05;;
22579;SDS011;11456;47.030;15.396;2022-07-23T06:52:49;13.77;;;8.20;;
22579;SDS011;11456;47.030;15.396;2022-07-23T06:55:16;15.25;;;7.97;;
22579;SDS011;11456;47.030;15.396;2022-07-23T06:57:44;18.52;;;8.55;;
22579;SDS011;11456;47.030;15.396;2022-07-23T07:00:11;12.82;;;9.05;;
22579;SDS011;11456;47.030;15.396;2022-07-23T07:02:38;17.13;;;8.43;;
22579;SDS011;11456;47.030;15.396;2022-07-23T07:05:05;15.65;;;8.15;;
22579;SDS011;11456;47.030;15.396;2022-07-23T07:07:32;12.45;;;7.90;;
22579;SDS011;11456;47.030;15.396;2022-07-23T07:10:00;10.43;;;8.20;;
22579;SDS011;11456;47.030;15.396;2022-07-23T07:12:27;9.23;;;7.43;;
22579;SDS011;11456;47.030;15.396;2022-07-23T07:14:54;13.70;;;8.20;;
22579;SDS011;11456;47.030;15.396;2022-07-23T07:17:21;12.20;;;8.05;;
22579;SDS011;11456;47.030;15.396;2022-07-23T07:19:48;12.18;;;7.55;;
22579;SDS011;11456;47.030;15.396;2022-07-23T07:22:15;12.32;;;7.22;;
22579;SDS011;11456;47.030;15.396;2022-07-23T07:24:41;11.57;;;7.35;;
22579;SDS011;11456;47.030;15.396;2022-07-23T07:27:08;12.07;;;7.75;;
22579;SDS011;11456;47.030;15.396;2022-07-23T07:29:35;11.07;;;7.68;;
22579;SDS011;11456;47.030;15.396;2022-07-23T07:32:02;12.65;;;7.55;;
22579;SDS011;11456;47.030;15.396;2022-07-23T07:34:29;9.05;;;7.10;;
22579;SDS011;11456;47.030;15.396;2022-07-23T07:36:55;12.43;;;7.50;;
22579;SDS011;11456;47.030;15.396;2022-07-23T07:39:22;9.88;;;6.80;;
22579;SDS011;11456;47.030;15.396;2022-07-23T07:41:49;10.35;;;6.10;;
22579;SDS011;11456;47.030;15.396;2022-07-23T07:44:15;8.95;;;6.10;;
22579;SDS011;11456;47.030;15.396;2022-07-23T07:46:42;8.32;;;5.80;;
22579;SDS011;11456;47.030;15.396;2022-07-23T07:49:09;7.53;;;5.57;;
22579;SDS011;11456;47.030;15.396;2022-07-23T07:51:41;5.00;;;4.50;;
22579;SDS011;11456;47.030;15.396;2022-07-23T07:54:10;10.65;;;4.43;;
22579;SDS011;11456;47.030;15.396;2022-07-23T07:56:40;7.43;;;4.80;;
22579;SDS011;11456;47.030;15.396;2022-07-23T07:59:07;6.05;;;5.25;;
22579;SDS011;11456;47.030;15.396;2022-07-23T08:01:34;8.45;;;5.05;;
22579;SDS011;11456;47.030;15.396;2022-07-23T08:04:01;5.60;;;4.78;;
22579;SDS011;11456;47.030;15.396;2022-07-23T08:06:28;8.60;;;4.60;;
22579;SDS011;11456;47.030;15.396;2022-07-23T08:08:55;4.40;;;3.97;;
22579;SDS011;11456;47.030;15.396;2022-07-23T08:11:21;6.07;;;3.92;;
22579;SDS011;11456;47.030;15.396;2022-07-23T08:13:48;7.88;;;4.68;;
22579;SDS011;11456;47.030;15.396;2022-07-23T08:16:15;5.78;;;4.60;;
22579;SDS011;11456;47.030;15.396;2022-07-23T08:18:42;14.43;;;3.65;;
22579;SDS011;11456;47.030;15.396;2022-07-23T08:21:09;3.28;;;2.97;;
22579;SDS011;11456;47.030;15.396;2022-07-23T08:23:35;4.07;;;3.20;;
22579;SDS011;11456;47.030;15.396;2022-07-23T08:26:02;3.25;;;2.75;;
22579;SDS011;11456;47.030;15.396;2022-07-23T08:28:29;4.50;;;3.10;;
22579;SDS011;11456;47.030;15.396;2022-07-23T08:30:59;4.60;;;2.60;;
22579;SDS011;11456;47.030;15.396;2022-07-23T08:33:27;3.92;;;2.80;;
22579;SDS011;11456;47.030;15.396;2022-07-23T08:35:56;3.50;;;2.90;;
22579;SDS011;11456;47.030;15.396;2022-07-23T08:38:24;5.03;;;3.22;;
22579;SDS011;11456;47.030;15.396;2022-07-23T08:40:52;6.57;;;3.30;;
22579;SDS011;11456;47.030;15.396;2022-07-23T08:43:21;3.53;;;2.83;;
22579;SDS011;11456;47.030;15.396;2022-07-23T08:45:51;3.33;;;3.00;;
22579;SDS011;11456;47.030;15.396;2022-07-23T08:48:21;5.32;;;3.00;;
22579;SDS011;11456;47.030;15.396;2022-07-23T08:50:51;7.28;;;2.70;;
22579;SDS011;11456;47.030;15.396;2022-07-23T08:53:20;4.80;;;3.03;;
22579;SDS011;11456;47.030;15.396;2022-07-23T08:55:49;4.22;;;3.10;;
22579;SDS011;11456;47.030;15.396;2022-07-23T08:58:18;3.35;;;2.80;;
22579;SDS011;11456;47.030;15.396;2022-07-23T09:00:52;3.70;;;3.03;;
22579;SDS011;11456;47.030;15.396;2022-07-23T09:03:20;4.03;;;3.00;;
22579;SDS011;11456;47.030;15.396;2022-07-23T09:05:49;7.10;;;3.10;;
22579;SDS011;11456;47.030;15.396;2022-07-23T09:08:18;3.10;;;2.72;;
22579;SDS011;11456;47.030;15.396;2022-07-23T09:10:56;5.82;;;3.20;;
22579;SDS011;11456;47.030;15.396;2022-07-23T09:13:32;7.07;;;3.00;;
22579;SDS011;11456;47.030;15.396;2022-07-23T09:21:25;6.63;;;3.38;;
22579;SDS011;11456;47.030;15.396;2022-07-23T09:26:50;6.70;;;3.35;;
22579;SDS011;11456;47.030;15.396;2022-07-23T09:29:18;5.28;;;3.35;;
22579;SDS011;11456;47.030;15.396;2022-07-23T09:31:49;4.47;;;3.38;;
22579;SDS011;11456;47.030;15.396;2022-07-23T09:34:27;4.00;;;3.53;;
22579;SDS011;11456;47.030;15.396;2022-07-23T09:37:12;4.10;;;3.10;;
22579;SDS011;11456;47.030;15.396;2022-07-23T09:39:40;3.75;;;3.33;;
22579;SDS011;11456;47.030;15.396;2022-07-23T09:45:06;3.65;;;3.03;;
22579;SDS011;11456;47.030;15.396;2022-07-23T09:47:37;4.45;;;3.22;;
22579;SDS011;11456;47.030;15.396;2022-07-23T09:50:05;5.65;;;3.13;;
22579;SDS011;11456;47.030;15.396;2022-07-23T09:52:48;3.30;;;3.00;;
22579;SDS011;11456;47.030;15.396;2022-07-23T09:55:16;4.70;;;2.80;;
22579;SDS011;11456;47.030;15.396;2022-07-23T09:57:44;3.38;;;3.08;;
22579;SDS011;11456;47.030;15.396;2022-07-23T10:00:16;3.92;;;2.80;;
22579;SDS011;11456;47.030;15.396;2022-07-23T10:02:43;3.35;;;2.90;;
22579;SDS011;11456;47.030;15.396;2022-07-23T10:05:28;4.35;;;3.33;;
22579;SDS011;11456;47.030;15.396;2022-07-23T10:08:16;3.22;;;2.80;;
22579;SDS011;11456;47.030;15.396;2022-07-23T10:11:03;3.10;;;2.90;;
22579;SDS011;11456;47.030;15.396;2022-07-23T10:13:49;7.60;;;3.10;;
22579;SDS011;11456;47.030;15.396;2022-07-23T10:16:44;5.25;;;3.20;;
22579;SDS011;11456;47.030;15.396;2022-07-23T10:19:11;3.03;;;2.63;;
22579;SDS011;11456;47.030;15.396;2022-07-23T10:21:45;3.40;;;2.90;;
22579;SDS011;11456;47.030;15.396;2022-07-23T10:24:21;4.45;;;3.10;;
22579;SDS011;11456;47.030;15.396;2022-07-23T10:27:04;4.43;;;3.03;;
22579;SDS011;11456;47.030;15.396;2022-07-23T10:30:14;6.10;;;2.92;;
22579;SDS011;11456;47.030;15.396;2022-07-23T10:35:43;6.63;;;3.30;;
22579;SDS011;11456;47.030;15.396;2022-07-23T10:38:13;7.25;;;3.50;;
22579;SDS011;11456;47.030;15.396;2022-07-23T10:40:53;5.38;;;3.60;;
22579;SDS011;11456;47.030;15.396;2022-07-23T10:43:27;7.30;;;3.20;;
22579;SDS011;11456;47.030;15.396;2022-07-23T10:45:57;5.60;;;3.58;;
22579;SDS011;11456;47.030;15.396;2022-07-23T10:49:21;3.53;;;3.17;;
22579;SDS011;11456;47.030;15.396;2022-07-23T10:54:51;4.13;;;3.72;;
22579;SDS011;11456;47.030;15.396;2022-07-23T10:57:21;7.72;;;4.13;;
22579;SDS011;11456;47.030;15.396;2022-07-23T11:02:36;6.93;;;3.92;;
22579;SDS011;11456;47.030;15.396;2022-07-23T11:05:07;5.10;;;3.80;;
22579;SDS011;11456;47.030;15.396;2022-07-23T11:07:36;5.80;;;4.15;;
22579;SDS011;11456;47.030;15.396;2022-07-23T11:10:31;4.97;;;4.00;;
22579;SDS011;11456;47.030;15.396;2022-07-23T11:32:00;5.22;;;3.63;;
22579;SDS011;11456;47.030;15.396;2022-07-23T11:34:33;5.07;;;4.20;;
22579;SDS011;11456;47.030;15.396;2022-07-23T11:37:09;4.18;;;3.70;;
22579;SDS011;11456;47.030;15.396;2022-07-23T11:39:38;8.90;;;4.20;;
22579;SDS011;11456;47.030;15.396;2022-07-23T11:42:06;4.47;;;3.78;;
22579;SDS011;11456;47.030;15.396;2022-07-23T11:44:35;5.30;;;4.10;;
22579;SDS011;11456;47.030;15.396;2022-07-23T11:47:09;4.63;;;4.10;;
22579;SDS011;11456;47.030;15.396;2022-07-23T11:49:38;6.82;;;3.60;;
22579;SDS011;11456;47.030;15.396;2022-07-23T11:52:12;7.00;;;4.20;;
22579;SDS011;11456;47.030;15.396;2022-07-23T11:55:14;4.88;;;3.95;;
22579;SDS011;11456;47.030;15.396;2022-07-23T11:57:38;4.90;;;3.78;;
22579;SDS011;11456;47.030;15.396;2022-07-23T12:00:11;4.10;;;3.70;;
22579;SDS011;11456;47.030;15.396;2022-07-23T12:02:48;5.35;;;4.10;;
22579;SDS011;11456;47.030;15.396;2022-07-23T12:05:36;8.13;;;4.05;;
22579;SDS011;11456;47.030;15.396;2022-07-23T12:08:05;5.07;;;3.78;;
22579;SDS011;11456;47.030;15.396;2022-07-23T12:10:37;7.55;;;3.80;;
22579;SDS011;11456;47.030;15.396;2022-07-23T12:13:12;5.43;;;3.58;;
22579;SDS011;11456;47.030;15.396;2022-07-23T12:15:45;5.22;;;3.70;;
22579;SDS011;11456;47.030;15.396;2022-07-23T12:18:15;5.88;;;4.00;;
22579;SDS011;11456;47.030;15.396;2022-07-23T12:20:46;8.30;;;3.80;;
22579;SDS011;11456;47.030;15.396;2022-07-23T12:23:18;4.28;;;3.88;;
22579;SDS011;11456;47.030;15.396;2022-07-23T12:25:47;5.50;;;3.88;;
22579;SDS011;11456;47.030;15.396;2022-07-23T12:28:16;4.38;;;3.97;;
22579;SDS011;11456;47.030;15.396;2022-07-23T12:33:22;6.88;;;3.45;;
22579;SDS011;11456;47.030;15.396;2022-07-23T12:35:50;6.68;;;3.58;;
22579;SDS011;11456;47.030;15.396;2022-07-23T12:38:20;4.60;;;3.60;;
22579;SDS011;11456;47.030;15.396;2022-07-23T12:40:50;6.40;;;4.00;;
22579;SDS011;11456;47.030;15.396;2022-07-23T12:45:55;5.07;;;3.65;;
22579;SDS011;11456;47.030;15.396;2022-07-23T12:48:29;4.28;;;3.80;;
22579;SDS011;11456;47.030;15.396;2022-07-23T12:50:58;6.03;;;3.80;;
22579;SDS011;11456;47.030;15.396;2022-07-23T12:53:41;4.72;;;4.15;;
22579;SDS011;11456;47.030;15.396;2022-07-23T12:56:10;4.03;;;3.50;;
22579;SDS011;11456;47.030;15.396;2022-07-23T12:58:50;4.13;;;3.78;;
22579;SDS011;11456;47.030;15.396;2022-07-23T13:06:42;6.38;;;3.95;;
22579;SDS011;11456;47.030;15.396;2022-07-23T13:09:11;6.78;;;3.92;;
22579;SDS011;11456;47.030;15.396;2022-07-23T13:11:41;9.40;;;3.80;;
22579;SDS011;11456;47.030;15.396;2022-07-23T13:14:08;7.00;;;4.00;;
22579;SDS011;11456;47.030;15.396;2022-07-23T13:16:35;4.78;;;4.38;;
22579;SDS011;11456;47.030;15.396;2022-07-23T13:19:03;4.55;;;4.00;;
22579;SDS011;11456;47.030;15.396;2022-07-23T13:21:30;8.25;;;3.60;;
22579;SDS011;11456;47.030;15.396;2022-07-23T13:23:57;6.97;;;4.30;;
22579;SDS011;11456;47.030;15.396;2022-07-23T13:26:25;7.45;;;3.78;;
22579;SDS011;11456;47.030;15.396;2022-07-23T13:28:52;5.07;;;4.00;;
22579;SDS011;11456;47.030;15.396;2022-07-23T13:31:19;5.07;;;4.03;;
22579;SDS011;11456;47.030;15.396;2022-07-23T13:33:47;5.53;;;4.20;;
22579;SDS011;11456;47.030;15.396;2022-07-23T13:36:14;6.68;;;4.30;;
22579;SDS011;11456;47.030;15.396;2022-07-23T13:38:41;4.78;;;4.35;;
22579;SDS011;11456;47.030;15.396;2022-07-23T13:41:08;4.55;;;4.13;;
22579;SDS011;11456;47.030;15.396;2022-07-23T13:43:37;6.55;;;4.38;;
22579;SDS011;11456;47.030;15.396;2022-07-23T13:46:04;7.10;;;4.30;;
22579;SDS011;11456;47.030;15.396;2022-07-23T13:48:31;13.15;;;4.13;;
22579;SDS011;11456;47.030;15.396;2022-07-23T13:50:58;6.47;;;4.10;;
22579;SDS011;11456;47.030;15.396;2022-07-23T13:53:26;4.80;;;4.32;;
22579;SDS011;11456;47.030;15.396;2022-07-23T13:55:53;9.75;;;3.97;;
22579;SDS011;11456;47.030;15.396;2022-07-23T13:58:21;7.30;;;4.30;;
22579;SDS011;11456;47.030;15.396;2022-07-23T14:00:50;4.60;;;4.15;;
22579;SDS011;11456;47.030;15.396;2022-07-23T14:03:19;4.63;;;4.22;;
22579;SDS011;11456;47.030;15.396;2022-07-23T14:05:53;8.07;;;4.25;;
22579;SDS011;11456;47.030;15.396;2022-07-23T14:08:22;5.18;;;3.83;;
22579;SDS011;11456;47.030;15.396;2022-07-23T14:10:48;4.50;;;3.85;;
22579;SDS011;11456;47.030;15.396;2022-07-23T14:13:15;5.70;;;4.35;;
22579;SDS011;11456;47.030;15.396;2022-07-23T14:15:42;5.28;;;4.18;;
22579;SDS011;11456;47.030;15.396;2022-07-23T14:18:09;4.82;;;4.20;;
22579;SDS011;11456;47.030;15.396;2022-07-23T14:20:35;5.30;;;4.13;;
22579;SDS011;11456;47.030;15.396;2022-07-23T14:23:03;4.55;;;4.13;;
22579;SDS011;11456;47.030;15.396;2022-07-23T14:25:50;4.18;;;3.80;;
22579;SDS011;11456;47.030;15.396;2022-07-23T14:28:17;5.10;;;4.15;;
22579;SDS011;11456;47.030;15.396;2022-07-23T14:30:46;4.22;;;3.85;;
22579;SDS011;11456;47.030;15.396;2022-07-23T14:33:12;4.30;;;3.80;;
22579;SDS011;11456;47.030;15.396;2022-07-23T14:35:42;8.50;;;4.05;;
22579;SDS011;11456;47.030;15.396;2022-07-23T14:38:09;6.10;;;3.72;;
22579;SDS011;11456;47.030;15.396;2022-07-23T14:40:39;5.43;;;3.90;;
22579;SDS011;11456;47.030;15.396;2022-07-23T14:43:06;6.07;;;3.90;;
22579;SDS011;11456;47.030;15.396;2022-07-23T14:45:36;7.15;;;4.05;;
22579;SDS011;11456;47.030;15.396;2022-07-23T14:48:02;5.63;;;4.07;;
22579;SDS011;11456;47.030;15.396;2022-07-23T14:50:29;6.78;;;4.30;;
22579;SDS011;11456;47.030;15.396;2022-07-23T14:52:56;6.78;;;3.97;;
22579;SDS011;11456;47.030;15.396;2022-07-23T14:55:23;5.68;;;4.25;;
22579;SDS011;11456;47.030;15.396;2022-07-23T14:57:50;7.07;;;3.92;;
22579;SDS011;11456;47.030;15.396;2022-07-23T15:00:17;6.60;;;3.72;;
22579;SDS011;11456;47.030;15.396;2022-07-23T15:02:49;4.30;;;4.00;;
22579;SDS011;11456;47.030;15.396;2022-07-23T15:05:20;6.22;;;4.05;;
22579;SDS011;11456;47.030;15.396;2022-07-23T15:07:48;7.13;;;4.22;;
22579;SDS011;11456;47.030;15.396;2022-07-23T15:10:15;7.43;;;4.10;;
22579;SDS011;11456;47.030;15.396;2022-07-23T15:12:45;6.03;;;4.43;;
22579;SDS011;11456;47.030;15.396;2022-07-23T15:15:13;8.35;;;4.70;;
22579;SDS011;11456;47.030;15.396;2022-07-23T15:17:41;5.35;;;4.30;;
22579;SDS011;11456;47.030;15.396;2022-07-23T15:20:08;5.05;;;4.30;;
22579;SDS011;11456;47.030;15.396;2022-07-23T15:22:36;4.53;;;4.13;;
22579;SDS011;11456;47.030;15.396;2022-07-23T15:25:03;7.82;;;4.45;;
22579;SDS011;11456;47.030;15.396;2022-07-23T15:27:30;7.00;;;4.45;;
22579;SDS011;11456;47.030;15.396;2022-07-23T15:29:58;6.18;;;4.25;;
22579;SDS011;11456;47.030;15.396;2022-07-23T15:32:25;6.28;;;4.18;;